createdAt,value
2022-09-21T00:01:49.365Z,73.79
2022-09-21T00:04:17.275Z,73.45
2022-09-21T00:06:50.851Z,72.55
2022-09-21T00:09:22.644Z,72.06
2022-09-21T00:11:56.342Z,71.16
2022-09-21T00:14:26.404Z,70.70
2022-09-21T00:16:54.364Z,70.46
2022-09-21T00:19:22.109Z,70.61
2022-09-21T00:21:53.209Z,71.29
2022-09-21T00:24:21.177Z,71.43
2022-09-21T00:26:48.985Z,71.91
2022-09-21T00:29:16.519Z,71.26
2022-09-21T00:31:44.318Z,71.91
2022-09-21T00:34:17.417Z,70.19
2022-09-21T00:36:45.298Z,71.56
2022-09-21T00:39:14.756Z,70.96
2022-09-21T00:41:42.634Z,71.11
2022-09-21T00:44:20.853Z,72.26
2022-09-21T00:46:51.777Z,71.85
2022-09-21T00:49:23.456Z,71.23
2022-09-21T00:51:52.577Z,72.42
2022-09-21T00:54:24.789Z,71.89
2022-09-21T00:56:58.033Z,72.53
2022-09-21T00:59:30.085Z,73.12
2022-09-21T01:01:58.309Z,72.77
2022-09-21T01:04:28.270Z,73.12
2022-09-21T01:06:57.972Z,73.60
2022-09-21T01:09:26.926Z,72.50
2022-09-21T01:11:57.426Z,72.64
2022-09-21T01:14:30.548Z,72.25
2022-09-21T01:17:02.577Z,72.55
2022-09-21T01:19:52.250Z,71.94
2022-09-21T01:22:20.307Z,70.08
2022-09-21T01:24:53.410Z,72.01
2022-09-21T01:27:39.113Z,73.49
2022-09-21T01:30:09.223Z,75.02
2022-09-21T01:32:40.966Z,74.40
2022-09-21T01:35:12.508Z,73.47
2022-09-21T01:37:43.555Z,74.87
2022-09-21T01:40:12.149Z,75.31
2022-09-21T01:42:40.220Z,75.56
2022-09-21T01:45:10.956Z,75.70
2022-09-21T01:47:38.876Z,74.29
2022-09-21T01:50:07.937Z,74.46
2022-09-21T01:52:36.316Z,74.57
2022-09-21T01:55:05.444Z,74.43
2022-09-21T01:57:33.600Z,74.78
2022-09-21T02:00:01.681Z,74.98
2022-09-21T02:02:32.278Z,74.50
2022-09-21T02:05:01.950Z,73.54
2022-09-21T02:07:29.602Z,71.42
2022-09-21T02:10:01.231Z,71.48
2022-09-21T02:12:31.628Z,72.29
2022-09-21T02:14:59.460Z,72.94
2022-09-21T02:17:31.310Z,73.27
2022-09-21T02:20:03.318Z,73.40
2022-09-21T02:22:33.288Z,72.65
2022-09-21T02:25:05.038Z,73.20
2022-09-21T02:27:33.654Z,74.20
2022-09-21T02:30:03.191Z,74.03
2022-09-21T02:32:33.928Z,75.03
2022-09-21T02:35:05.044Z,75.37
2022-09-21T02:37:35.385Z,74.90
2022-09-21T02:40:05.454Z,75.68
2022-09-21T02:42:34.187Z,74.94
2022-09-21T02:45:05.983Z,74.60
2022-09-21T02:47:35.382Z,74.17
2022-09-21T02:50:05.981Z,74.40
2022-09-21T02:52:33.498Z,74.38
2022-09-21T02:55:05.118Z,75.32
2022-09-21T02:57:33.338Z,74.28
2022-09-21T03:00:03.839Z,74.52
2022-09-21T03:02:37.002Z,73.16
2022-09-21T03:05:06.998Z,72.31
2022-09-21T03:07:37.688Z,74.06
2022-09-21T03:10:08.552Z,73.98
2022-09-21T03:12:37.101Z,74.29
2022-09-21T03:15:07.435Z,74.00
2022-09-21T03:17:35.105Z,73.89
2022-09-21T03:20:03.026Z,74.99
2022-09-21T03:22:38.403Z,75.05
2022-09-21T03:25:07.024Z,74.50
2022-09-21T03:27:34.637Z,75.24
2022-09-21T03:30:02.798Z,73.94
2022-09-21T03:32:36.441Z,75.24
2022-09-21T03:35:04.937Z,75.67
2022-09-21T03:37:41.411Z,74.96
2022-09-21T03:40:09.791Z,75.37
2022-09-21T03:42:37.922Z,73.74
2022-09-21T03:45:06.492Z,72.74
2022-09-21T03:47:34.388Z,72.83
2022-09-21T03:50:04.608Z,72.18
2022-09-21T03:52:40.790Z,73.38
2022-09-21T03:55:09.316Z,73.70
2022-09-21T03:57:38.410Z,74.09
2022-09-21T04:00:09.194Z,73.89
2022-09-21T04:02:39.276Z,74.85
2022-09-21T04:05:08.197Z,74.72
2022-09-21T04:07:38.257Z,75.31
2022-09-21T04:10:06.591Z,75.77
2022-09-21T04:12:34.610Z,74.74
2022-09-21T04:15:02.325Z,74.82
2022-09-21T04:17:31.261Z,73.65
2022-09-21T04:19:58.881Z,73.56
2022-09-21T04:22:34.196Z,73.48
2022-09-21T04:25:04.068Z,73.65
2022-09-21T04:27:31.880Z,74.41
2022-09-21T04:29:59.880Z,74.99
2022-09-21T04:32:27.639Z,75.85
2022-09-21T04:34:55.851Z,75.46
2022-09-21T04:37:24.326Z,73.29
2022-09-21T04:39:51.929Z,74.21
2022-09-21T04:42:21.297Z,73.45
2022-09-21T04:44:49.136Z,73.41
2022-09-21T04:47:16.880Z,74.82
2022-09-21T04:49:48.335Z,74.94
2022-09-21T04:52:19.132Z,74.92
2022-09-21T04:54:47.179Z,74.44
2022-09-21T04:57:17.849Z,74.88
2022-09-21T04:59:49.893Z,74.93
2022-09-21T05:02:31.605Z,75.41
2022-09-21T05:05:01.812Z,75.57
2022-09-21T05:07:29.487Z,74.73
2022-09-21T05:10:07.041Z,74.65
2022-09-21T05:12:37.633Z,74.39
2022-09-21T05:15:10.653Z,73.58
2022-09-21T05:17:38.595Z,72.73
2022-09-21T05:20:06.933Z,73.92
2022-09-21T05:22:35.107Z,75.05
2022-09-21T05:25:04.922Z,75.29
2022-09-21T05:27:32.516Z,74.68
2022-09-21T05:30:00.614Z,75.85
2022-09-21T05:32:37.205Z,75.80
2022-09-21T05:35:07.134Z,74.39
2022-09-21T05:37:50.512Z,75.38
2022-09-21T05:40:18.821Z,74.34
2022-09-21T05:42:46.746Z,75.01
2022-09-21T05:45:16.136Z,75.73
2022-09-21T05:47:53.248Z,74.67
2022-09-21T05:50:30.855Z,75.54
2022-09-21T05:53:01.456Z,74.13
2022-09-21T05:55:32.367Z,72.70
2022-09-21T05:58:04.168Z,72.90
2022-09-21T06:00:32.990Z,72.72
2022-09-21T06:03:17.841Z,71.77
2022-09-21T06:05:46.831Z,71.32
2022-09-21T06:08:14.822Z,72.74
2022-09-21T06:10:42.356Z,71.25
2022-09-21T06:13:12.205Z,70.06
2022-09-21T06:15:40.183Z,69.14
2022-09-21T06:18:09.035Z,68.14
2022-09-21T06:20:38.557Z,68.15
2022-09-21T06:23:09.097Z,68.03
2022-09-21T06:25:39.312Z,68.11
2022-09-21T06:28:19.883Z,69.37
2022-09-21T06:30:51.747Z,70.25
2022-09-21T06:33:21.375Z,68.92
2022-09-21T06:35:54.972Z,67.82
2022-09-21T06:38:22.869Z,68.40
2022-09-21T06:40:50.631Z,67.84
2022-09-21T06:43:18.742Z,68.29
2022-09-21T06:45:48.301Z,68.95
2022-09-21T06:48:16.057Z,70.09
2022-09-21T06:50:43.924Z,70.23
2022-09-21T06:53:15.006Z,69.79
2022-09-21T06:55:45.726Z,69.63
2022-09-21T06:58:13.584Z,69.29
2022-09-21T07:00:41.297Z,69.22
2022-09-21T07:03:11.349Z,70.08
2022-09-21T07:05:40.279Z,69.94
2022-09-21T07:10:05.174Z,70.01
2022-09-21T07:11:00.921Z,69.46
2022-09-21T07:13:28.932Z,70.33
2022-09-21T07:15:58.985Z,71.08
2022-09-21T07:18:27.058Z,70.42
2022-09-21T07:20:56.991Z,70.54
2022-09-21T07:23:26.891Z,70.12
2022-09-21T07:25:54.861Z,69.43
2022-09-21T07:28:24.892Z,71.49
2022-09-21T07:30:53.470Z,70.65
2022-09-21T07:33:21.418Z,68.97
2022-09-21T07:35:52.443Z,70.49
2022-09-21T07:38:23.409Z,70.13
2022-09-21T07:40:52.037Z,71.19
2022-09-21T07:43:20.644Z,69.81
2022-09-21T07:45:56.126Z,70.77
2022-09-21T07:48:26.357Z,70.94
2022-09-21T07:50:55.228Z,71.28
2022-09-21T07:53:23.145Z,71.16
2022-09-21T07:55:51.085Z,70.94
2022-09-21T07:58:38.928Z,70.31
2022-09-21T08:01:09.583Z,70.57
2022-09-21T08:03:39.629Z,70.50
2022-09-21T08:06:10.936Z,71.01
2022-09-21T08:08:41.715Z,70.24
2022-09-21T08:11:11.892Z,69.90
2022-09-21T08:13:39.510Z,70.60
2022-09-21T08:16:12.392Z,70.31
2022-09-21T08:18:42.265Z,70.89
2022-09-21T08:21:12.908Z,70.46
2022-09-21T08:23:43.098Z,71.15
2022-09-21T08:26:12.544Z,71.94
2022-09-21T08:28:40.832Z,70.52
2022-09-21T08:31:09.569Z,71.71
2022-09-21T08:33:38.859Z,70.94
2022-09-21T08:36:07.941Z,72.27
2022-09-21T08:38:36.701Z,71.80
2022-09-21T08:41:04.751Z,71.43
2022-09-21T08:43:33.438Z,71.26
2022-09-21T08:46:01.053Z,72.14
2022-09-21T08:48:34.463Z,71.92
2022-09-21T08:51:08.265Z,71.29
2022-09-21T08:53:36.388Z,69.30
2022-09-21T08:56:06.985Z,69.38
2022-09-21T08:58:35.000Z,70.06
2022-09-21T09:01:08.535Z,68.97
2022-09-21T09:03:55.073Z,67.47
2022-09-21T09:06:26.866Z,68.99
2022-09-21T09:09:15.997Z,70.36
2022-09-21T09:11:49.738Z,69.58
2022-09-21T09:14:24.958Z,69.35
2022-09-21T09:16:55.705Z,69.94
2022-09-21T09:19:32.557Z,69.64
2022-09-21T09:22:06.909Z,69.13
2022-09-21T09:24:38.092Z,68.49
2022-09-21T09:27:07.113Z,68.32
2022-09-21T09:29:38.626Z,68.28
2022-09-21T09:32:06.390Z,67.38
2022-09-21T09:34:35.194Z,67.59
2022-09-21T09:37:07.154Z,66.65
2022-09-21T09:39:34.827Z,66.22
2022-09-21T09:42:09.560Z,65.73
2022-09-21T09:44:47.170Z,66.10
2022-09-21T09:47:18.615Z,65.90
2022-09-21T09:49:49.338Z,65.19
2022-09-21T09:52:19.168Z,65.14
2022-09-21T09:54:48.282Z,64.11
2022-09-21T09:57:16.256Z,64.03
2022-09-21T09:59:53.364Z,63.47
2022-09-21T10:02:22.396Z,63.88
2022-09-21T10:05:03.847Z,61.32
2022-09-21T10:07:40.360Z,60.96
2022-09-21T10:10:24.572Z,61.43
2022-09-21T10:12:52.197Z,61.11
2022-09-21T10:15:20.477Z,61.00
2022-09-21T10:17:48.304Z,63.54
2022-09-21T10:20:20.478Z,62.80
2022-09-21T10:22:50.474Z,62.82
2022-09-21T10:25:21.267Z,62.35
2022-09-21T10:27:50.004Z,61.32
2022-09-21T10:30:34.169Z,60.66
2022-09-21T10:33:02.337Z,58.40
2022-09-21T10:35:30.569Z,59.53
2022-09-21T10:38:13.319Z,60.80
2022-09-21T10:40:42.695Z,60.39
2022-09-21T10:43:20.459Z,59.82
2022-09-21T10:45:54.665Z,60.38
2022-09-21T10:48:22.506Z,61.12
2022-09-21T10:50:51.108Z,60.26
2022-09-21T10:53:21.552Z,59.76
2022-09-21T10:56:04.937Z,58.97
2022-09-21T10:58:40.359Z,59.26
2022-09-21T11:01:13.046Z,61.05
2022-09-21T11:03:43.529Z,60.26
2022-09-21T11:06:16.093Z,59.37
2022-09-21T11:08:47.058Z,59.38
2022-09-21T11:11:33.547Z,59.46
2022-09-21T11:14:10.073Z,60.00
2022-09-21T11:16:38.530Z,59.45
2022-09-21T11:19:10.169Z,60.24
2022-09-21T11:21:42.963Z,60.37
2022-09-21T11:24:15.645Z,59.71
2022-09-21T11:26:49.091Z,59.74
2022-09-21T11:29:23.177Z,59.79
2022-09-21T11:31:58.369Z,59.91
2022-09-21T11:34:33.086Z,59.54
2022-09-21T11:37:10.289Z,59.49
2022-09-21T11:39:42.099Z,57.73
2022-09-21T11:42:15.073Z,56.70
2022-09-21T11:44:49.279Z,55.39
2022-09-21T11:47:20.080Z,55.62
2022-09-21T11:50:26.388Z,55.09
2022-09-21T11:52:54.482Z,56.50
2022-09-21T11:55:32.794Z,55.86
2022-09-21T11:58:18.669Z,58.35
2022-09-21T12:00:52.779Z,56.39
2022-09-21T12:03:35.360Z,56.66
2022-09-21T12:06:05.342Z,57.24
2022-09-21T12:08:43.439Z,54.70
2022-09-21T12:11:14.063Z,55.64
2022-09-21T12:13:43.594Z,56.28
2022-09-21T12:16:14.873Z,55.77
2022-09-21T12:18:46.289Z,56.67
2022-09-21T12:21:15.280Z,57.76
2022-09-21T12:23:43.288Z,57.46
2022-09-21T12:26:11.502Z,57.22
2022-09-21T12:28:41.058Z,59.10
2022-09-21T12:31:11.083Z,57.87
2022-09-21T12:33:43.130Z,57.82
2022-09-21T12:36:14.753Z,56.27
2022-09-21T12:38:44.311Z,56.84
2022-09-21T12:41:16.085Z,54.10
2022-09-21T12:43:45.028Z,54.29
2022-09-21T12:46:14.507Z,54.26
2022-09-21T12:48:45.592Z,52.60
2022-09-21T12:51:15.622Z,53.99
2022-09-21T12:53:50.636Z,55.08
2022-09-21T12:56:22.646Z,55.08
2022-09-21T12:58:57.508Z,53.55
2022-09-21T13:01:27.988Z,52.71
2022-09-21T13:04:04.482Z,52.37
2022-09-21T13:06:42.863Z,52.46
2022-09-21T13:09:15.046Z,54.58
2022-09-21T13:11:51.160Z,54.33
2022-09-21T13:14:18.872Z,55.25
2022-09-21T13:16:46.510Z,53.03
2022-09-21T13:19:22.846Z,51.93
2022-09-21T13:22:14.600Z,51.30
2022-09-21T13:24:43.513Z,51.92
2022-09-21T13:27:16.176Z,52.72
2022-09-21T13:29:45.962Z,52.96
2022-09-21T13:32:23.813Z,54.11
2022-09-21T13:34:54.345Z,54.40
2022-09-21T13:37:31.571Z,54.51
2022-09-21T13:40:18.192Z,55.15
2022-09-21T13:42:47.718Z,53.47
2022-09-21T13:45:34.649Z,53.65
2022-09-21T13:48:02.377Z,50.93
2022-09-21T13:50:33.596Z,50.31
2022-09-21T13:53:01.605Z,50.04
2022-09-21T13:55:30.695Z,50.47
2022-09-21T13:57:59.822Z,50.27
2022-09-21T14:00:37.759Z,49.10
2022-09-21T14:03:06.311Z,50.13
2022-09-21T14:05:37.543Z,49.36
2022-09-21T14:08:07.872Z,47.88
2022-09-21T14:10:36.426Z,47.75
2022-09-21T14:13:07.789Z,48.44
2022-09-21T14:15:39.701Z,48.14
2022-09-21T14:18:21.815Z,47.38
2022-09-21T14:21:08.746Z,46.54
2022-09-21T14:23:38.730Z,46.31
2022-09-21T14:26:20.885Z,47.22
2022-09-21T14:28:51.354Z,46.41
2022-09-21T14:31:20.319Z,45.78
2022-09-21T14:33:48.634Z,45.22
2022-09-21T14:36:17.136Z,46.05
2022-09-21T14:38:54.652Z,45.89
2022-09-21T14:41:41.213Z,46.20
2022-09-21T14:44:10.903Z,46.13
2022-09-21T14:46:59.760Z,46.91
2022-09-21T14:49:34.898Z,46.93
2022-09-21T14:52:16.670Z,45.74
2022-09-21T14:54:52.711Z,45.08
2022-09-21T14:57:24.802Z,45.93
2022-09-21T14:59:59.714Z,45.94
2022-09-21T15:02:28.123Z,45.61
2022-09-21T15:04:57.934Z,45.47
2022-09-21T15:07:46.295Z,45.64
2022-09-21T15:10:40.499Z,46.38
2022-09-21T15:13:13.220Z,46.74
2022-09-21T15:15:43.237Z,46.21
2022-09-21T15:18:20.133Z,46.54
2022-09-21T15:21:01.296Z,46.51
2022-09-21T15:23:34.701Z,46.71
2022-09-21T15:26:04.649Z,46.59
2022-09-21T15:28:58.060Z,45.80
2022-09-21T15:31:24.664Z,45.86
2022-09-21T15:33:52.852Z,46.68
2022-09-21T15:36:24.245Z,46.60
2022-09-21T15:38:52.596Z,45.46
2022-09-21T15:41:39.458Z,46.63
2022-09-21T15:44:16.973Z,46.92
2022-09-21T15:46:45.441Z,46.62
2022-09-21T15:49:15.282Z,46.43
2022-09-21T15:51:46.153Z,46.93
2022-09-21T15:54:32.272Z,46.96
2022-09-21T15:57:05.923Z,47.25
2022-09-21T15:59:35.568Z,47.62
2022-09-21T16:02:15.796Z,47.12
2022-09-21T16:04:49.367Z,46.67
2022-09-21T16:07:26.107Z,45.85
2022-09-21T16:09:53.843Z,45.84
2022-09-21T16:12:41.763Z,45.57
2022-09-21T16:15:14.716Z,46.38
2022-09-21T16:17:54.021Z,46.63
2022-09-21T16:20:24.634Z,46.75
2022-09-21T16:22:55.635Z,46.43
2022-09-21T16:25:25.298Z,46.36
2022-09-21T16:27:55.489Z,45.71
2022-09-21T16:30:42.537Z,45.95
2022-09-21T16:33:33.586Z,46.55
2022-09-21T16:36:04.777Z,46.25
2022-09-21T16:38:35.684Z,46.09
2022-09-21T16:41:03.276Z,46.92
2022-09-21T16:43:35.649Z,46.64
2022-09-21T16:46:06.141Z,47.23
2022-09-21T16:48:33.817Z,48.12
2022-09-21T16:51:01.672Z,49.04
2022-09-21T16:53:29.361Z,49.32
2022-09-21T16:55:57.414Z,49.36
2022-09-21T16:58:25.968Z,50.25
2022-09-21T17:01:00.026Z,51.08
2022-09-21T17:03:31.631Z,51.81
2022-09-21T17:05:59.650Z,52.35
2022-09-21T17:08:27.888Z,52.57
2022-09-21T17:10:56.017Z,52.76
2022-09-21T17:13:29.049Z,52.81
2022-09-21T17:15:58.514Z,53.32
2022-09-21T17:18:26.304Z,52.87
2022-09-21T17:20:57.100Z,53.41
2022-09-21T17:23:29.121Z,53.30
2022-09-21T17:25:57.403Z,52.74
2022-09-21T17:28:26.629Z,53.23
2022-09-21T17:30:56.147Z,53.36
2022-09-21T17:33:27.254Z,52.98
2022-09-21T17:35:55.379Z,53.19
2022-09-21T17:38:23.367Z,52.60
2022-09-21T17:40:54.502Z,52.78
2022-09-21T17:43:33.149Z,52.68
2022-09-21T17:46:03.677Z,51.98
2022-09-21T17:48:34.362Z,52.35
2022-09-21T17:51:02.303Z,51.90
2022-09-21T17:53:37.064Z,51.54
2022-09-21T17:56:11.949Z,51.77
2022-09-21T17:58:42.799Z,52.46
2022-09-21T18:01:22.582Z,52.49
2022-09-21T18:03:53.291Z,52.93
2022-09-21T18:06:22.101Z,52.96
2022-09-21T18:08:52.849Z,53.04
2022-09-21T18:11:36.323Z,54.62
2022-09-21T18:14:05.739Z,52.93
2022-09-21T18:16:35.896Z,53.17
2022-09-21T18:19:14.194Z,53.51
2022-09-21T18:21:44.146Z,54.14
2022-09-21T18:24:18.391Z,55.88
2022-09-21T18:26:46.573Z,56.58
2022-09-21T18:29:38.373Z,56.93
2022-09-21T18:32:08.446Z,56.40
2022-09-21T18:34:47.430Z,57.67
2022-09-21T18:37:17.002Z,58.03
2022-09-21T18:39:53.534Z,58.13
2022-09-21T18:42:27.344Z,58.01
2022-09-21T18:44:57.575Z,57.56
2022-09-21T18:47:29.720Z,58.34
2022-09-21T18:50:01.164Z,58.18
2022-09-21T18:52:33.110Z,58.56
2022-09-21T18:55:00.889Z,59.03
2022-09-21T18:57:32.309Z,59.60
2022-09-21T19:00:01.658Z,59.42
2022-09-21T19:02:29.601Z,58.63
2022-09-21T19:04:59.197Z,59.28
2022-09-21T19:07:28.921Z,59.75
2022-09-21T19:09:58.990Z,60.08
2022-09-21T19:12:31.331Z,60.34
2022-09-21T19:15:01.996Z,60.25
2022-09-21T19:17:36.319Z,59.68
2022-09-21T19:20:07.668Z,59.41
2022-09-21T19:22:40.971Z,59.41
2022-09-21T19:25:09.500Z,60.13
2022-09-21T19:27:38.353Z,60.21
2022-09-21T19:30:08.530Z,60.27
2022-09-21T19:32:37.350Z,60.18
2022-09-21T19:35:16.525Z,60.10
2022-09-21T19:37:48.245Z,60.48
2022-09-21T19:40:16.820Z,61.19
2022-09-21T19:42:52.322Z,60.80
2022-09-21T19:45:21.943Z,60.83
2022-09-21T19:47:53.392Z,60.81
2022-09-21T19:50:25.968Z,61.40
2022-09-21T19:53:16.171Z,61.65
2022-09-21T19:56:09.313Z,62.20
2022-09-21T19:59:03.096Z,62.26
2022-09-21T20:01:31.473Z,61.80
2022-09-21T20:03:59.992Z,62.14
2022-09-21T20:06:29.006Z,61.87
2022-09-21T20:09:03.512Z,63.98
2022-09-21T20:11:35.870Z,64.21
2022-09-21T20:14:16.553Z,62.68
2022-09-21T20:16:46.950Z,65.00
2022-09-21T20:19:18.261Z,64.12
2022-09-21T20:21:48.415Z,63.90
2022-09-21T20:24:20.479Z,63.91
2022-09-21T20:26:49.251Z,63.46
2022-09-21T20:29:17.114Z,62.65
2022-09-21T20:31:45.307Z,62.16
2022-09-21T20:34:13.114Z,63.11
2022-09-21T20:36:40.992Z,63.25
2022-09-21T20:39:09.484Z,62.46
2022-09-21T20:41:39.664Z,64.28
2022-09-21T20:44:07.670Z,64.60
2022-09-21T20:46:35.266Z,65.79
2022-09-21T20:49:08.291Z,64.30
2022-09-21T20:51:39.288Z,64.06
2022-09-21T20:54:07.664Z,63.47
2022-09-21T20:56:40.642Z,63.81
2022-09-21T20:59:09.900Z,63.41
2022-09-21T21:01:37.735Z,64.17
2022-09-21T21:04:08.212Z,63.92
2022-09-21T21:06:37.780Z,64.68
2022-09-21T21:09:08.520Z,64.30
2022-09-21T21:11:37.594Z,64.82
2022-09-21T21:14:05.516Z,66.12
2022-09-21T21:16:46.608Z,65.09
2022-09-21T21:19:14.536Z,66.84
2022-09-21T21:21:43.267Z,67.75
2022-09-21T21:24:30.590Z,66.33
2022-09-21T21:27:02.175Z,67.82
2022-09-21T21:29:33.608Z,65.83
2022-09-21T21:32:06.302Z,65.65
2022-09-21T21:34:34.259Z,68.14
2022-09-21T21:37:01.805Z,67.06
2022-09-21T21:39:32.513Z,67.91
2022-09-21T21:42:00.214Z,67.03
2022-09-21T21:44:29.071Z,66.73
2022-09-21T21:47:15.464Z,65.92
2022-09-21T21:49:50.811Z,66.73
2022-09-21T21:52:18.398Z,65.81
2022-09-21T21:54:46.008Z,65.40
2022-09-21T21:57:14.917Z,65.63
2022-09-21T21:59:43.228Z,64.56
2022-09-21T22:02:11.248Z,65.72
2022-09-21T22:04:42.198Z,64.98
2022-09-21T22:07:12.871Z,65.60
2022-09-21T22:09:41.844Z,65.94
2022-09-21T22:12:11.241Z,66.87
2022-09-21T22:14:39.199Z,66.23
2022-09-21T22:17:06.969Z,66.00
2022-09-21T22:19:34.880Z,65.24
2022-09-21T22:22:02.634Z,65.30
2022-09-21T22:24:31.818Z,66.75
2022-09-21T22:26:59.858Z,65.89
2022-09-21T22:29:32.662Z,66.42
2022-09-21T22:32:01.710Z,66.06
2022-09-21T22:34:30.536Z,66.43
2022-09-21T22:37:00.621Z,66.73
2022-09-21T22:39:29.245Z,68.81
2022-09-21T22:41:58.576Z,69.03
2022-09-21T22:44:26.152Z,69.75
2022-09-21T22:46:56.870Z,68.82
2022-09-21T22:49:24.801Z,67.13
2022-09-21T22:51:52.381Z,66.39
2022-09-21T22:54:19.921Z,67.07
2022-09-21T22:56:47.564Z,66.25
2022-09-21T22:59:16.546Z,67.63
2022-09-21T23:01:49.458Z,68.45
2022-09-21T23:04:20.291Z,70.41
2022-09-21T23:06:49.619Z,67.96
2022-09-21T23:09:19.657Z,66.94
2022-09-21T23:11:48.328Z,68.79
2022-09-21T23:14:17.708Z,67.74
2022-09-21T23:16:45.638Z,68.18
2022-09-21T23:19:16.471Z,66.50
2022-09-21T23:21:44.836Z,68.14
2022-09-21T23:24:12.941Z,68.33
2022-09-21T23:26:43.093Z,68.40
2022-09-21T23:29:11.872Z,68.75
2022-09-21T23:31:50.878Z,68.73
2022-09-21T23:34:18.558Z,68.31
2022-09-21T23:36:47.348Z,68.58
2022-09-21T23:39:15.384Z,69.06
2022-09-21T23:41:43.895Z,69.62
2022-09-21T23:44:11.598Z,67.78
2022-09-21T23:46:39.597Z,67.48
2022-09-21T23:49:08.672Z,68.71
2022-09-21T23:51:36.575Z,68.47
2022-09-21T23:54:04.873Z,69.24
2022-09-21T23:56:33.009Z,69.34
